sensor_id;sensor_type;location;lat;lon;timestamp;P1;durP1;ratioP1;P2;durP2;ratioP2
22778;SDS011;11556;51.194;3.800;2022-07-23T00:01:59;12.50;;;7.10;;
22778;SDS011;11556;51.194;3.800;2022-07-23T00:04:24;8.98;;;6.43;;
22778;SDS011;11556;51.194;3.800;2022-07-23T00:06:50;10.65;;;7.05;;
22778;SDS011;11556;51.194;3.800;2022-07-23T00:09:16;9.50;;;6.90;;
22778;SDS011;11556;51.194;3.800;2022-07-23T00:11:41;12.55;;;6.90;;
22778;SDS011;11556;51.194;3.800;2022-07-23T00:14:07;11.65;;;6.95;;
22778;SDS011;11556;51.194;3.800;2022-07-23T00:16:33;12.65;;;8.00;;
22778;SDS011;11556;51.194;3.800;2022-07-23T00:18:58;9.30;;;7.50;;
22778;SDS011;11556;51.194;3.800;2022-07-23T00:21:26;12.20;;;7.22;;
22778;SDS011;11556;51.194;3.800;2022-07-23T00:23:52;11.57;;;7.07;;
22778;SDS011;11556;51.194;3.800;2022-07-23T00:26:17;9.48;;;7.53;;
22778;SDS011;11556;51.194;3.800;2022-07-23T00:28:43;13.60;;;7.95;;
22778;SDS011;11556;51.194;3.800;2022-07-23T00:31:08;14.60;;;8.50;;
22778;SDS011;11556;51.194;3.800;2022-07-23T00:33:34;14.55;;;8.48;;
22778;SDS011;11556;51.194;3.800;2022-07-23T00:36:00;11.88;;;8.40;;
22778;SDS011;11556;51.194;3.800;2022-07-23T00:38:26;12.13;;;8.15;;
22778;SDS011;11556;51.194;3.800;2022-07-23T00:40:51;11.18;;;8.38;;
22778;SDS011;11556;51.194;3.800;2022-07-23T00:43:19;12.25;;;7.90;;
22778;SDS011;11556;51.194;3.800;2022-07-23T00:45:47;13.02;;;8.25;;
22778;SDS011;11556;51.194;3.800;2022-07-23T00:48:12;14.77;;;8.73;;
22778;SDS011;11556;51.194;3.800;2022-07-23T00:50:38;11.98;;;8.65;;
22778;SDS011;11556;51.194;3.800;2022-07-23T00:53:04;10.68;;;8.38;;
22778;SDS011;11556;51.194;3.800;2022-07-23T00:55:30;10.55;;;8.80;;
22778;SDS011;11556;51.194;3.800;2022-07-23T00:57:56;12.18;;;8.93;;
22778;SDS011;11556;51.194;3.800;2022-07-23T01:00:23;15.10;;;9.18;;
22778;SDS011;11556;51.194;3.800;2022-07-23T01:02:51;16.48;;;9.57;;
22778;SDS011;11556;51.194;3.800;2022-07-23T01:05:17;11.73;;;9.35;;
22778;SDS011;11556;51.194;3.800;2022-07-23T01:07:47;17.08;;;10.45;;
22778;SDS011;11556;51.194;3.800;2022-07-23T01:10:14;18.42;;;10.38;;
22778;SDS011;11556;51.194;3.800;2022-07-23T01:12:55;17.98;;;10.18;;
22778;SDS011;11556;51.194;3.800;2022-07-23T01:15:23;16.55;;;10.82;;
22778;SDS011;11556;51.194;3.800;2022-07-23T01:17:49;17.25;;;11.07;;
22778;SDS011;11556;51.194;3.800;2022-07-23T01:20:15;15.82;;;11.10;;
22778;SDS011;11556;51.194;3.800;2022-07-23T01:22:41;19.00;;;11.25;;
22778;SDS011;11556;51.194;3.800;2022-07-23T01:25:07;17.73;;;11.85;;
22778;SDS011;11556;51.194;3.800;2022-07-23T01:27:33;13.40;;;11.00;;
22778;SDS011;11556;51.194;3.800;2022-07-23T01:30:02;18.75;;;11.35;;
22778;SDS011;11556;51.194;3.800;2022-07-23T01:32:28;14.18;;;11.38;;
22778;SDS011;11556;51.194;3.800;2022-07-23T01:34:54;17.92;;;11.45;;
22778;SDS011;11556;51.194;3.800;2022-07-23T01:37:20;16.08;;;11.30;;
22778;SDS011;11556;51.194;3.800;2022-07-23T01:39:45;18.63;;;11.32;;
22778;SDS011;11556;51.194;3.800;2022-07-23T01:42:11;18.27;;;10.75;;
22778;SDS011;11556;51.194;3.800;2022-07-23T01:44:37;18.88;;;11.70;;
22778;SDS011;11556;51.194;3.800;2022-07-23T01:47:02;17.70;;;11.68;;
22778;SDS011;11556;51.194;3.800;2022-07-23T01:49:29;18.05;;;12.18;;
22778;SDS011;11556;51.194;3.800;2022-07-23T01:51:55;19.98;;;12.23;;
22778;SDS011;11556;51.194;3.800;2022-07-23T01:54:27;18.90;;;12.32;;
22778;SDS011;11556;51.194;3.800;2022-07-23T01:56:57;18.83;;;11.43;;
22778;SDS011;11556;51.194;3.800;2022-07-23T01:59:23;19.52;;;12.20;;
22778;SDS011;11556;51.194;3.800;2022-07-23T02:01:50;19.98;;;11.45;;
22778;SDS011;11556;51.194;3.800;2022-07-23T02:04:16;19.70;;;11.38;;
22778;SDS011;11556;51.194;3.800;2022-07-23T02:06:45;17.08;;;11.50;;
22778;SDS011;11556;51.194;3.800;2022-07-23T02:09:12;16.52;;;10.77;;
22778;SDS011;11556;51.194;3.800;2022-07-23T02:11:38;15.30;;;10.15;;
22778;SDS011;11556;51.194;3.800;2022-07-23T02:14:04;19.58;;;11.02;;
22778;SDS011;11556;51.194;3.800;2022-07-23T02:16:29;15.57;;;10.05;;
22778;SDS011;11556;51.194;3.800;2022-07-23T02:18:55;19.92;;;11.45;;
22778;SDS011;11556;51.194;3.800;2022-07-23T02:21:21;15.43;;;10.07;;
22778;SDS011;11556;51.194;3.800;2022-07-23T02:23:46;14.05;;;10.43;;
22778;SDS011;11556;51.194;3.800;2022-07-23T02:26:12;16.90;;;11.55;;
22778;SDS011;11556;51.194;3.800;2022-07-23T02:28:38;20.23;;;12.10;;
22778;SDS011;11556;51.194;3.800;2022-07-23T02:31:04;23.35;;;11.93;;
22778;SDS011;11556;51.194;3.800;2022-07-23T02:33:31;16.08;;;11.13;;
22778;SDS011;11556;51.194;3.800;2022-07-23T02:35:57;15.27;;;10.75;;
22778;SDS011;11556;51.194;3.800;2022-07-23T02:38:23;18.38;;;10.88;;
22778;SDS011;11556;51.194;3.800;2022-07-23T02:40:49;18.08;;;12.13;;
22778;SDS011;11556;51.194;3.800;2022-07-23T02:43:15;17.33;;;11.80;;
22778;SDS011;11556;51.194;3.800;2022-07-23T02:45:40;20.17;;;12.45;;
22778;SDS011;11556;51.194;3.800;2022-07-23T02:48:06;19.48;;;12.23;;
22778;SDS011;11556;51.194;3.800;2022-07-23T02:50:31;15.20;;;11.43;;
22778;SDS011;11556;51.194;3.800;2022-07-23T02:52:57;20.73;;;12.50;;
22778;SDS011;11556;51.194;3.800;2022-07-23T02:55:23;19.35;;;12.07;;
22778;SDS011;11556;51.194;3.800;2022-07-23T02:57:48;19.58;;;11.68;;
22778;SDS011;11556;51.194;3.800;2022-07-23T03:00:14;18.98;;;12.20;;
22778;SDS011;11556;51.194;3.800;2022-07-23T03:02:40;23.00;;;13.15;;
22778;SDS011;11556;51.194;3.800;2022-07-23T03:05:06;23.55;;;13.55;;
22778;SDS011;11556;51.194;3.800;2022-07-23T03:07:31;18.13;;;13.10;;
22778;SDS011;11556;51.194;3.800;2022-07-23T03:09:57;19.25;;;13.07;;
22778;SDS011;11556;51.194;3.800;2022-07-23T03:12:23;18.45;;;12.63;;
22778;SDS011;11556;51.194;3.800;2022-07-23T03:14:49;19.70;;;12.27;;
22778;SDS011;11556;51.194;3.800;2022-07-23T03:17:14;17.48;;;12.60;;
22778;SDS011;11556;51.194;3.800;2022-07-23T03:19:40;16.80;;;12.50;;
22778;SDS011;11556;51.194;3.800;2022-07-23T03:22:06;19.42;;;12.45;;
22778;SDS011;11556;51.194;3.800;2022-07-23T03:24:32;16.63;;;12.02;;
22778;SDS011;11556;51.194;3.800;2022-07-23T03:27:16;13.98;;;11.05;;
22778;SDS011;11556;51.194;3.800;2022-07-23T03:29:42;16.70;;;12.30;;
22778;SDS011;11556;51.194;3.800;2022-07-23T03:32:07;20.35;;;12.88;;
22778;SDS011;11556;51.194;3.800;2022-07-23T03:34:33;17.92;;;12.80;;
22778;SDS011;11556;51.194;3.800;2022-07-23T03:36:59;18.95;;;12.88;;
22778;SDS011;11556;51.194;3.800;2022-07-23T03:39:25;20.45;;;13.07;;
22778;SDS011;11556;51.194;3.800;2022-07-23T03:41:50;18.17;;;12.10;;
22778;SDS011;11556;51.194;3.800;2022-07-23T03:44:16;20.60;;;13.45;;
22778;SDS011;11556;51.194;3.800;2022-07-23T03:46:41;28.30;;;14.40;;
22778;SDS011;11556;51.194;3.800;2022-07-23T03:49:07;24.90;;;14.77;;
22778;SDS011;11556;51.194;3.800;2022-07-23T03:51:33;21.67;;;14.05;;
22778;SDS011;11556;51.194;3.800;2022-07-23T03:53:58;25.00;;;14.10;;
22778;SDS011;11556;51.194;3.800;2022-07-23T03:56:24;29.63;;;14.88;;
22778;SDS011;11556;51.194;3.800;2022-07-23T03:58:51;19.67;;;13.55;;
22778;SDS011;11556;51.194;3.800;2022-07-23T04:01:16;22.25;;;13.80;;
22778;SDS011;11556;51.194;3.800;2022-07-23T04:03:43;23.23;;;13.65;;
22778;SDS011;11556;51.194;3.800;2022-07-23T04:06:09;20.98;;;13.85;;
22778;SDS011;11556;51.194;3.800;2022-07-23T04:08:35;20.85;;;13.60;;
22778;SDS011;11556;51.194;3.800;2022-07-23T04:11:00;20.20;;;13.20;;
22778;SDS011;11556;51.194;3.800;2022-07-23T04:13:26;26.85;;;14.95;;
22778;SDS011;11556;51.194;3.800;2022-07-23T04:15:52;27.65;;;15.35;;
22778;SDS011;11556;51.194;3.800;2022-07-23T04:18:17;20.80;;;13.25;;
22778;SDS011;11556;51.194;3.800;2022-07-23T04:20:44;23.83;;;13.63;;
22778;SDS011;11556;51.194;3.800;2022-07-23T04:23:10;20.33;;;14.25;;
22778;SDS011;11556;51.194;3.800;2022-07-23T04:25:35;25.13;;;14.52;;
22778;SDS011;11556;51.194;3.800;2022-07-23T04:28:03;22.50;;;14.32;;
22778;SDS011;11556;51.194;3.800;2022-07-23T04:30:29;23.83;;;14.88;;
22778;SDS011;11556;51.194;3.800;2022-07-23T04:32:55;25.52;;;14.63;;
22778;SDS011;11556;51.194;3.800;2022-07-23T04:35:20;22.88;;;14.27;;
22778;SDS011;11556;51.194;3.800;2022-07-23T04:37:46;25.15;;;15.70;;
22778;SDS011;11556;51.194;3.800;2022-07-23T04:40:12;23.67;;;15.38;;
22778;SDS011;11556;51.194;3.800;2022-07-23T04:42:38;20.30;;;14.15;;
22778;SDS011;11556;51.194;3.800;2022-07-23T04:45:04;26.42;;;14.50;;
22778;SDS011;11556;51.194;3.800;2022-07-23T04:47:31;20.58;;;13.43;;
22778;SDS011;11556;51.194;3.800;2022-07-23T04:49:57;19.73;;;13.15;;
22778;SDS011;11556;51.194;3.800;2022-07-23T04:52:23;15.20;;;11.68;;
22778;SDS011;11556;51.194;3.800;2022-07-23T04:54:49;15.93;;;11.25;;
22778;SDS011;11556;51.194;3.800;2022-07-23T04:57:15;18.05;;;11.20;;
22778;SDS011;11556;51.194;3.800;2022-07-23T04:59:41;15.65;;;10.60;;
22778;SDS011;11556;51.194;3.800;2022-07-23T05:02:07;15.88;;;9.55;;
22778;SDS011;11556;51.194;3.800;2022-07-23T05:04:32;12.25;;;9.35;;
22778;SDS011;11556;51.194;3.800;2022-07-23T05:06:59;10.52;;;8.63;;
22778;SDS011;11556;51.194;3.800;2022-07-23T05:09:25;15.07;;;8.27;;
22778;SDS011;11556;51.194;3.800;2022-07-23T05:11:50;11.00;;;8.50;;
22778;SDS011;11556;51.194;3.800;2022-07-23T05:14:16;12.55;;;8.55;;
22778;SDS011;11556;51.194;3.800;2022-07-23T05:16:42;9.13;;;7.70;;
22778;SDS011;11556;51.194;3.800;2022-07-23T05:19:07;11.90;;;8.63;;
22778;SDS011;11556;51.194;3.800;2022-07-23T05:21:35;13.77;;;7.85;;
22778;SDS011;11556;51.194;3.800;2022-07-23T05:24:01;13.18;;;7.47;;
22778;SDS011;11556;51.194;3.800;2022-07-23T05:26:26;10.98;;;7.65;;
22778;SDS011;11556;51.194;3.800;2022-07-23T05:28:52;9.48;;;6.90;;
22778;SDS011;11556;51.194;3.800;2022-07-23T05:31:18;8.70;;;7.25;;
22778;SDS011;11556;51.194;3.800;2022-07-23T05:33:43;11.50;;;6.40;;
22778;SDS011;11556;51.194;3.800;2022-07-23T05:36:09;7.88;;;5.80;;
22778;SDS011;11556;51.194;3.800;2022-07-23T05:38:35;11.52;;;5.82;;
22778;SDS011;11556;51.194;3.800;2022-07-23T05:41:01;7.03;;;5.45;;
22778;SDS011;11556;51.194;3.800;2022-07-23T05:43:27;9.05;;;5.47;;
22778;SDS011;11556;51.194;3.800;2022-07-23T05:45:53;5.85;;;5.15;;
22778;SDS011;11556;51.194;3.800;2022-07-23T05:48:18;9.68;;;5.47;;
22778;SDS011;11556;51.194;3.800;2022-07-23T05:50:44;11.32;;;5.80;;
22778;SDS011;11556;51.194;3.800;2022-07-23T05:53:11;7.65;;;5.75;;
22778;SDS011;11556;51.194;3.800;2022-07-23T05:55:36;8.30;;;5.35;;
22778;SDS011;11556;51.194;3.800;2022-07-23T05:58:02;8.48;;;5.63;;
22778;SDS011;11556;51.194;3.800;2022-07-23T06:00:28;9.68;;;5.30;;
22778;SDS011;11556;51.194;3.800;2022-07-23T06:02:54;9.95;;;6.00;;
22778;SDS011;11556;51.194;3.800;2022-07-23T06:05:19;6.43;;;5.50;;
22778;SDS011;11556;51.194;3.800;2022-07-23T06:07:45;6.95;;;5.68;;
22778;SDS011;11556;51.194;3.800;2022-07-23T06:10:11;9.05;;;5.93;;
22778;SDS011;11556;51.194;3.800;2022-07-23T06:12:37;7.65;;;6.20;;
22778;SDS011;11556;51.194;3.800;2022-07-23T06:15:03;9.90;;;5.82;;
22778;SDS011;11556;51.194;3.800;2022-07-23T06:17:29;6.75;;;6.00;;
22778;SDS011;11556;51.194;3.800;2022-07-23T06:19:55;11.43;;;5.68;;
22778;SDS011;11556;51.194;3.800;2022-07-23T06:22:21;7.95;;;5.68;;
22778;SDS011;11556;51.194;3.800;2022-07-23T06:24:47;8.85;;;5.95;;
22778;SDS011;11556;51.194;3.800;2022-07-23T06:27:13;8.02;;;5.85;;
22778;SDS011;11556;51.194;3.800;2022-07-23T06:29:39;7.95;;;5.85;;
22778;SDS011;11556;51.194;3.800;2022-07-23T06:32:05;8.68;;;5.65;;
22778;SDS011;11556;51.194;3.800;2022-07-23T06:34:31;10.13;;;5.90;;
22778;SDS011;11556;51.194;3.800;2022-07-23T06:36:58;10.40;;;5.43;;
22778;SDS011;11556;51.194;3.800;2022-07-23T06:39:24;9.77;;;5.95;;
22778;SDS011;11556;51.194;3.800;2022-07-23T06:41:49;9.48;;;6.00;;
22778;SDS011;11556;51.194;3.800;2022-07-23T06:44:15;8.07;;;5.43;;
22778;SDS011;11556;51.194;3.800;2022-07-23T06:46:41;8.07;;;5.57;;
22778;SDS011;11556;51.194;3.800;2022-07-23T06:49:06;8.80;;;5.63;;
22778;SDS011;11556;51.194;3.800;2022-07-23T06:51:32;7.15;;;5.57;;
22778;SDS011;11556;51.194;3.800;2022-07-23T06:53:58;7.95;;;5.22;;
22778;SDS011;11556;51.194;3.800;2022-07-23T06:56:23;7.03;;;5.43;;
22778;SDS011;11556;51.194;3.800;2022-07-23T06:58:49;6.13;;;5.05;;
22778;SDS011;11556;51.194;3.800;2022-07-23T07:01:15;7.53;;;5.10;;
22778;SDS011;11556;51.194;3.800;2022-07-23T07:03:40;5.35;;;4.88;;
22778;SDS011;11556;51.194;3.800;2022-07-23T07:06:06;9.70;;;5.50;;
22778;SDS011;11556;51.194;3.800;2022-07-23T07:08:32;5.80;;;4.93;;
22778;SDS011;11556;51.194;3.800;2022-07-23T07:10:57;6.35;;;4.85;;
22778;SDS011;11556;51.194;3.800;2022-07-23T07:13:23;9.95;;;4.85;;
22778;SDS011;11556;51.194;3.800;2022-07-23T07:15:48;9.80;;;5.70;;
22778;SDS011;11556;51.194;3.800;2022-07-23T07:18:14;6.55;;;4.68;;
22778;SDS011;11556;51.194;3.800;2022-07-23T07:20:40;8.63;;;5.63;;
22778;SDS011;11556;51.194;3.800;2022-07-23T07:23:06;9.68;;;5.93;;
22778;SDS011;11556;51.194;3.800;2022-07-23T07:25:32;9.70;;;5.53;;
22778;SDS011;11556;51.194;3.800;2022-07-23T07:27:58;8.15;;;5.80;;
22778;SDS011;11556;51.194;3.800;2022-07-23T07:30:24;9.68;;;5.68;;
22778;SDS011;11556;51.194;3.800;2022-07-23T07:32:49;7.97;;;5.85;;
22778;SDS011;11556;51.194;3.800;2022-07-23T07:35:15;6.95;;;5.75;;
22778;SDS011;11556;51.194;3.800;2022-07-23T07:37:41;8.18;;;6.28;;
22778;SDS011;11556;51.194;3.800;2022-07-23T07:40:07;8.27;;;5.35;;
22778;SDS011;11556;51.194;3.800;2022-07-23T07:42:33;11.43;;;6.03;;
22778;SDS011;11556;51.194;3.800;2022-07-23T07:44:59;7.82;;;5.70;;
22778;SDS011;11556;51.194;3.800;2022-07-23T07:47:25;11.02;;;5.22;;
22778;SDS011;11556;51.194;3.800;2022-07-23T07:49:51;7.70;;;5.25;;
22778;SDS011;11556;51.194;3.800;2022-07-23T07:52:16;7.47;;;5.43;;
22778;SDS011;11556;51.194;3.800;2022-07-23T07:54:42;7.18;;;4.95;;
22778;SDS011;11556;51.194;3.800;2022-07-23T07:57:08;8.05;;;5.38;;
22778;SDS011;11556;51.194;3.800;2022-07-23T07:59:34;7.65;;;5.20;;
22778;SDS011;11556;51.194;3.800;2022-07-23T08:02:00;6.15;;;5.55;;
22778;SDS011;11556;51.194;3.800;2022-07-23T08:04:25;9.57;;;5.75;;
22778;SDS011;11556;51.194;3.800;2022-07-23T08:06:51;6.68;;;5.50;;
22778;SDS011;11556;51.194;3.800;2022-07-23T08:09:17;7.80;;;5.90;;
22778;SDS011;11556;51.194;3.800;2022-07-23T08:11:42;9.55;;;6.03;;
22778;SDS011;11556;51.194;3.800;2022-07-23T08:14:08;7.55;;;5.47;;
22778;SDS011;11556;51.194;3.800;2022-07-23T08:16:36;5.82;;;4.75;;
22778;SDS011;11556;51.194;3.800;2022-07-23T08:19:02;13.35;;;5.45;;
22778;SDS011;11556;51.194;3.800;2022-07-23T08:21:27;7.28;;;5.60;;
22778;SDS011;11556;51.194;3.800;2022-07-23T08:23:53;8.25;;;5.05;;
22778;SDS011;11556;51.194;3.800;2022-07-23T08:26:19;9.57;;;5.38;;
22778;SDS011;11556;51.194;3.800;2022-07-23T08:28:44;9.43;;;5.53;;
22778;SDS011;11556;51.194;3.800;2022-07-23T08:31:10;7.88;;;5.10;;
22778;SDS011;11556;51.194;3.800;2022-07-23T08:33:37;8.35;;;5.82;;
22778;SDS011;11556;51.194;3.800;2022-07-23T08:36:03;7.45;;;5.50;;
22778;SDS011;11556;51.194;3.800;2022-07-23T08:38:29;7.32;;;5.50;;
22778;SDS011;11556;51.194;3.800;2022-07-23T08:40:56;8.15;;;5.93;;
22778;SDS011;11556;51.194;3.800;2022-07-23T08:43:25;8.63;;;5.80;;
22778;SDS011;11556;51.194;3.800;2022-07-23T08:45:53;7.50;;;5.70;;
22778;SDS011;11556;51.194;3.800;2022-07-23T08:48:26;6.70;;;5.27;;
22778;SDS011;11556;51.194;3.800;2022-07-23T08:50:58;9.13;;;5.80;;
22778;SDS011;11556;51.194;3.800;2022-07-23T08:53:25;11.52;;;5.72;;
22778;SDS011;11556;51.194;3.800;2022-07-23T08:55:52;8.40;;;5.53;;
22778;SDS011;11556;51.194;3.800;2022-07-23T08:58:20;7.43;;;5.28;;
22778;SDS011;11556;51.194;3.800;2022-07-23T09:00:47;7.38;;;5.05;;
22778;SDS011;11556;51.194;3.800;2022-07-23T09:03:23;13.82;;;6.18;;
22778;SDS011;11556;51.194;3.800;2022-07-23T09:05:51;7.30;;;5.40;;
22778;SDS011;11556;51.194;3.800;2022-07-23T09:08:19;6.82;;;5.10;;
22778;SDS011;11556;51.194;3.800;2022-07-23T09:16:06;8.88;;;5.40;;
22778;SDS011;11556;51.194;3.800;2022-07-23T09:21:31;10.32;;;6.10;;
22778;SDS011;11556;51.194;3.800;2022-07-23T09:26:35;8.20;;;5.95;;
22778;SDS011;11556;51.194;3.800;2022-07-23T09:29:12;8.63;;;6.22;;
22778;SDS011;11556;51.194;3.800;2022-07-23T09:31:57;11.43;;;6.82;;
22778;SDS011;11556;51.194;3.800;2022-07-23T09:34:31;12.52;;;8.88;;
22778;SDS011;11556;51.194;3.800;2022-07-23T09:37:13;13.32;;;8.07;;
22778;SDS011;11556;51.194;3.800;2022-07-23T09:39:43;16.85;;;9.40;;
22778;SDS011;11556;51.194;3.800;2022-07-23T09:42:14;14.77;;;9.20;;
22778;SDS011;11556;51.194;3.800;2022-07-23T09:44:49;11.38;;;8.48;;
22778;SDS011;11556;51.194;3.800;2022-07-23T09:47:16;15.10;;;9.05;;
22778;SDS011;11556;51.194;3.800;2022-07-23T09:52:49;12.10;;;8.68;;
22778;SDS011;11556;51.194;3.800;2022-07-23T09:55:18;12.00;;;8.80;;
22778;SDS011;11556;51.194;3.800;2022-07-23T09:57:44;11.32;;;8.82;;
22778;SDS011;11556;51.194;3.800;2022-07-23T10:00:14;15.98;;;9.55;;
22778;SDS011;11556;51.194;3.800;2022-07-23T10:02:40;12.25;;;8.55;;
22778;SDS011;11556;51.194;3.800;2022-07-23T10:05:06;9.48;;;8.38;;
22778;SDS011;11556;51.194;3.800;2022-07-23T10:07:33;13.48;;;8.38;;
22778;SDS011;11556;51.194;3.800;2022-07-23T10:10:02;16.00;;;11.00;;
22778;SDS011;11556;51.194;3.800;2022-07-23T10:12:29;17.80;;;11.98;;
22778;SDS011;11556;51.194;3.800;2022-07-23T10:15:13;20.63;;;13.88;;
22778;SDS011;11556;51.194;3.800;2022-07-23T10:17:39;22.05;;;15.73;;
22778;SDS011;11556;51.194;3.800;2022-07-23T10:20:05;21.52;;;14.77;;
22778;SDS011;11556;51.194;3.800;2022-07-23T10:22:33;21.95;;;15.10;;
22778;SDS011;11556;51.194;3.800;2022-07-23T10:33:51;19.15;;;12.60;;
22778;SDS011;11556;51.194;3.800;2022-07-23T10:36:47;17.17;;;13.63;;
22778;SDS011;11556;51.194;3.800;2022-07-23T10:41:51;19.30;;;13.05;;
22778;SDS011;11556;51.194;3.800;2022-07-23T10:44:20;20.25;;;14.40;;
22778;SDS011;11556;51.194;3.800;2022-07-23T10:46:54;23.27;;;15.15;;
22778;SDS011;11556;51.194;3.800;2022-07-23T10:49:42;25.50;;;16.25;;
22778;SDS011;11556;51.194;3.800;2022-07-23T10:52:15;23.58;;;14.50;;
22778;SDS011;11556;51.194;3.800;2022-07-23T10:54:48;16.85;;;12.60;;
22778;SDS011;11556;51.194;3.800;2022-07-23T10:57:27;18.23;;;12.65;;
22778;SDS011;11556;51.194;3.800;2022-07-23T11:00:09;20.92;;;11.68;;
22778;SDS011;11556;51.194;3.800;2022-07-23T11:02:38;16.60;;;12.95;;
22778;SDS011;11556;51.194;3.800;2022-07-23T11:05:06;17.48;;;10.88;;
22778;SDS011;11556;51.194;3.800;2022-07-23T11:10:32;13.15;;;8.18;;
22778;SDS011;11556;51.194;3.800;2022-07-23T11:23:58;12.60;;;7.05;;
22778;SDS011;11556;51.194;3.800;2022-07-23T11:26:59;11.82;;;7.10;;
22778;SDS011;11556;51.194;3.800;2022-07-23T11:34:27;9.52;;;6.05;;
22778;SDS011;11556;51.194;3.800;2022-07-23T11:36:56;8.52;;;6.05;;
22778;SDS011;11556;51.194;3.800;2022-07-23T11:39:22;9.40;;;6.45;;
22778;SDS011;11556;51.194;3.800;2022-07-23T11:41:51;11.40;;;6.68;;
22778;SDS011;11556;51.194;3.800;2022-07-23T11:44:34;8.32;;;5.88;;
22778;SDS011;11556;51.194;3.800;2022-07-23T11:47:04;11.75;;;6.35;;
22778;SDS011;11556;51.194;3.800;2022-07-23T11:49:34;8.82;;;5.72;;
22778;SDS011;11556;51.194;3.800;2022-07-23T11:52:04;9.10;;;6.07;;
22778;SDS011;11556;51.194;3.800;2022-07-23T11:54:33;8.82;;;5.18;;
22778;SDS011;11556;51.194;3.800;2022-07-23T11:57:01;6.72;;;5.28;;
22778;SDS011;11556;51.194;3.800;2022-07-23T11:59:28;8.40;;;5.10;;
22778;SDS011;11556;51.194;3.800;2022-07-23T12:02:01;6.75;;;5.30;;
22778;SDS011;11556;51.194;3.800;2022-07-23T12:04:42;10.05;;;5.00;;
22778;SDS011;11556;51.194;3.800;2022-07-23T12:09:59;7.72;;;4.63;;
22778;SDS011;11556;51.194;3.800;2022-07-23T12:15:14;7.10;;;4.22;;
22778;SDS011;11556;51.194;3.800;2022-07-23T12:17:43;10.43;;;4.20;;
22778;SDS011;11556;51.194;3.800;2022-07-23T12:20:15;5.72;;;4.38;;
22778;SDS011;11556;51.194;3.800;2022-07-23T12:22:47;7.03;;;3.70;;
22778;SDS011;11556;51.194;3.800;2022-07-23T12:27:41;5.75;;;5.07;;
22778;SDS011;11556;51.194;3.800;2022-07-23T12:30:17;7.20;;;5.22;;
22778;SDS011;11556;51.194;3.800;2022-07-23T12:32:48;5.88;;;4.47;;
22778;SDS011;11556;51.194;3.800;2022-07-23T12:37:41;7.07;;;4.65;;
22778;SDS011;11556;51.194;3.800;2022-07-23T12:43:06;5.57;;;5.00;;
22778;SDS011;11556;51.194;3.800;2022-07-23T12:45:54;9.13;;;5.20;;
22778;SDS011;11556;51.194;3.800;2022-07-23T12:48:32;4.45;;;4.05;;
22778;SDS011;11556;51.194;3.800;2022-07-23T12:51:02;4.80;;;4.30;;
22778;SDS011;11556;51.194;3.800;2022-07-23T12:56:03;7.13;;;4.70;;
22778;SDS011;11556;51.194;3.800;2022-07-23T12:58:41;5.35;;;3.65;;
22778;SDS011;11556;51.194;3.800;2022-07-23T13:06:35;5.20;;;3.88;;
22778;SDS011;11556;51.194;3.800;2022-07-23T13:09:03;7.43;;;3.22;;
22778;SDS011;11556;51.194;3.800;2022-07-23T13:11:31;5.28;;;3.05;;
22778;SDS011;11556;51.194;3.800;2022-07-23T13:13:57;3.75;;;2.88;;
22778;SDS011;11556;51.194;3.800;2022-07-23T13:16:23;3.70;;;2.70;;
22778;SDS011;11556;51.194;3.800;2022-07-23T13:18:48;3.38;;;2.80;;
22778;SDS011;11556;51.194;3.800;2022-07-23T13:21:14;4.50;;;3.17;;
22778;SDS011;11556;51.194;3.800;2022-07-23T13:23:41;4.10;;;3.53;;
22778;SDS011;11556;51.194;3.800;2022-07-23T13:26:07;7.70;;;2.90;;
22778;SDS011;11556;51.194;3.800;2022-07-23T13:28:32;6.55;;;3.10;;
22778;SDS011;11556;51.194;3.800;2022-07-23T13:30:58;5.38;;;3.30;;
22778;SDS011;11556;51.194;3.800;2022-07-23T13:33:24;4.05;;;3.13;;
22778;SDS011;11556;51.194;3.800;2022-07-23T13:35:51;4.25;;;3.40;;
22778;SDS011;11556;51.194;3.800;2022-07-23T13:38:17;4.90;;;3.08;;
22778;SDS011;11556;51.194;3.800;2022-07-23T13:40:45;4.15;;;3.60;;
22778;SDS011;11556;51.194;3.800;2022-07-23T13:43:13;4.78;;;2.90;;
22778;SDS011;11556;51.194;3.800;2022-07-23T13:45:41;3.75;;;2.33;;
22778;SDS011;11556;51.194;3.800;2022-07-23T13:48:08;6.03;;;3.03;;
22778;SDS011;11556;51.194;3.800;2022-07-23T13:50:34;3.83;;;2.40;;
22778;SDS011;11556;51.194;3.800;2022-07-23T13:53:01;4.13;;;2.78;;
22778;SDS011;11556;51.194;3.800;2022-07-23T13:55:29;2.83;;;2.00;;
22778;SDS011;11556;51.194;3.800;2022-07-23T13:57:55;3.72;;;2.85;;
22778;SDS011;11556;51.194;3.800;2022-07-23T14:00:21;3.17;;;2.63;;
22778;SDS011;11556;51.194;3.800;2022-07-23T14:02:46;4.38;;;2.63;;
22778;SDS011;11556;51.194;3.800;2022-07-23T14:05:12;3.55;;;2.42;;
22778;SDS011;11556;51.194;3.800;2022-07-23T14:07:38;5.53;;;2.60;;
22778;SDS011;11556;51.194;3.800;2022-07-23T14:10:05;3.63;;;2.80;;
22778;SDS011;11556;51.194;3.800;2022-07-23T14:12:32;5.85;;;2.47;;
22778;SDS011;11556;51.194;3.800;2022-07-23T14:14:58;6.15;;;3.03;;
22778;SDS011;11556;51.194;3.800;2022-07-23T14:17:23;7.22;;;2.90;;
22778;SDS011;11556;51.194;3.800;2022-07-23T14:19:49;4.45;;;3.40;;
22778;SDS011;11556;51.194;3.800;2022-07-23T14:22:15;3.88;;;2.92;;
22778;SDS011;11556;51.194;3.800;2022-07-23T14:24:41;3.80;;;2.92;;
22778;SDS011;11556;51.194;3.800;2022-07-23T14:27:07;4.75;;;3.03;;
22778;SDS011;11556;51.194;3.800;2022-07-23T14:29:33;4.75;;;3.13;;
22778;SDS011;11556;51.194;3.800;2022-07-23T14:31:59;3.60;;;3.00;;
22778;SDS011;11556;51.194;3.800;2022-07-23T14:34:24;3.72;;;3.10;;
22778;SDS011;11556;51.194;3.800;2022-07-23T14:36:51;5.18;;;3.45;;
22778;SDS011;11556;51.194;3.800;2022-07-23T14:39:17;4.80;;;3.47;;
22778;SDS011;11556;51.194;3.800;2022-07-23T14:41:43;9.15;;;3.80;;
22778;SDS011;11556;51.194;3.800;2022-07-23T14:44:08;4.22;;;3.80;;
22778;SDS011;11556;51.194;3.800;2022-07-23T14:46:34;4.40;;;4.00;;
22778;SDS011;11556;51.194;3.800;2022-07-23T14:49:00;5.95;;;3.35;;
22778;SDS011;11556;51.194;3.800;2022-07-23T14:51:25;5.65;;;3.72;;
22778;SDS011;11556;51.194;3.800;2022-07-23T14:53:52;4.25;;;3.15;;
22778;SDS011;11556;51.194;3.800;2022-07-23T14:56:18;4.78;;;3.38;;
22778;SDS011;11556;51.194;3.800;2022-07-23T14:58:43;6.63;;;4.50;;
22778;SDS011;11556;51.194;3.800;2022-07-23T15:01:09;4.15;;;3.75;;
22778;SDS011;11556;51.194;3.800;2022-07-23T15:03:35;4.95;;;4.43;;
22778;SDS011;11556;51.194;3.800;2022-07-23T15:06:00;5.88;;;4.13;;
22778;SDS011;11556;51.194;3.800;2022-07-23T15:08:26;6.95;;;4.20;;
22778;SDS011;11556;51.194;3.800;2022-07-23T15:10:52;5.05;;;3.75;;
22778;SDS011;11556;51.194;3.800;2022-07-23T15:13:17;4.40;;;3.90;;
22778;SDS011;11556;51.194;3.800;2022-07-23T15:15:43;5.70;;;3.72;;
22778;SDS011;11556;51.194;3.800;2022-07-23T15:18:09;5.00;;;3.90;;
22778;SDS011;11556;51.194;3.800;2022-07-23T15:20:35;8.10;;;4.00;;
22778;SDS011;11556;51.194;3.800;2022-07-23T15:23:03;5.90;;;4.00;;
22778;SDS011;11556;51.194;3.800;2022-07-23T15:25:32;4.50;;;3.85;;
22778;SDS011;11556;51.194;3.800;2022-07-23T15:27:58;5.22;;;3.55;;
22778;SDS011;11556;51.194;3.800;2022-07-23T15:30:24;6.32;;;4.10;;
22778;SDS011;11556;51.194;3.800;2022-07-23T15:32:50;8.15;;;3.85;;
22778;SDS011;11556;51.194;3.800;2022-07-23T15:35:16;5.28;;;4.13;;
22778;SDS011;11556;51.194;3.800;2022-07-23T15:37:42;7.63;;;4.80;;
22778;SDS011;11556;51.194;3.800;2022-07-23T15:40:08;5.80;;;3.97;;
22778;SDS011;11556;51.194;3.800;2022-07-23T15:42:34;4.95;;;4.10;;